createdAt,value
2018-12-13T00:01:48.165Z,8.22
2018-12-13T00:04:14.489Z,8.24
2018-12-13T00:06:40.422Z,8.18
2018-12-13T00:09:06.359Z,8.27
2018-12-13T00:11:32.342Z,8.15
2018-12-13T00:13:58.284Z,7.90
2018-12-13T00:16:24.254Z,7.90
2018-12-13T00:18:50.203Z,7.94
2018-12-13T00:21:16.164Z,7.96
2018-12-13T00:23:42.127Z,8.24
2018-12-13T00:26:08.073Z,8.27
2018-12-13T00:28:34.017Z,8.25
2018-12-13T00:30:59.967Z,8.25
2018-12-13T00:33:25.921Z,8.28
2018-12-13T00:35:51.862Z,8.12
2018-12-13T00:38:18.559Z,8.19
2018-12-13T00:40:44.512Z,8.06
2018-12-13T00:43:10.463Z,7.92
2018-12-13T00:45:36.416Z,8.06
2018-12-13T00:48:02.378Z,8.13
2018-12-13T00:50:28.320Z,7.98
2018-12-13T00:52:54.284Z,7.98
2018-12-13T00:55:20.233Z,8.02
2018-12-13T00:57:46.195Z,8.02
2018-12-13T01:00:12.150Z,7.82
2018-12-13T01:02:38.120Z,7.73
2018-12-13T01:05:04.072Z,7.68
2018-12-13T01:07:30.040Z,7.61
2018-12-13T01:09:56.001Z,7.69
2018-12-13T01:12:21.932Z,7.79
2018-12-13T01:14:47.888Z,7.39
2018-12-13T01:17:13.837Z,7.55
2018-12-13T01:19:39.776Z,7.61
2018-12-13T01:22:05.726Z,7.69
2018-12-13T01:24:31.651Z,7.81
2018-12-13T01:26:57.596Z,7.81
2018-12-13T01:29:23.543Z,7.88
2018-12-13T01:31:49.503Z,7.91
2018-12-13T01:34:15.491Z,7.89
2018-12-13T01:36:41.471Z,7.77
2018-12-13T01:39:07.416Z,7.76
2018-12-13T01:41:33.375Z,7.75
2018-12-13T01:43:59.339Z,7.29
2018-12-13T01:46:25.292Z,7.19
2018-12-13T01:48:51.230Z,7.24
2018-12-13T01:51:17.180Z,7.22
2018-12-13T01:53:43.144Z,7.00
2018-12-13T01:56:09.086Z,6.78
2018-12-13T01:58:35.045Z,7.07
2018-12-13T02:01:01.003Z,7.32
2018-12-13T02:03:27.487Z,7.34
2018-12-13T02:05:53.445Z,7.39
2018-12-13T02:08:19.396Z,7.45
2018-12-13T02:10:45.333Z,7.37
2018-12-13T02:13:11.300Z,7.36
2018-12-13T02:15:37.251Z,7.38
2018-12-13T02:18:03.213Z,7.35
2018-12-13T02:20:29.156Z,7.22
2018-12-13T02:22:55.976Z,7.12
2018-12-13T02:25:21.911Z,7.24
2018-12-13T02:27:47.865Z,7.13
2018-12-13T02:30:13.893Z,7.31
2018-12-13T02:32:39.875Z,7.15
2018-12-13T02:35:05.831Z,6.98
2018-12-13T02:37:31.803Z,6.94
2018-12-13T02:39:57.772Z,7.08
2018-12-13T02:42:23.771Z,6.78
2018-12-13T02:44:49.746Z,6.89
2018-12-13T02:47:15.742Z,6.81
2018-12-13T02:49:41.705Z,6.85
2018-12-13T02:52:07.667Z,6.61
2018-12-13T02:54:33.633Z,6.72
2018-12-13T02:56:59.696Z,6.92
2018-12-13T02:59:25.656Z,7.11
2018-12-13T03:01:51.610Z,7.00
2018-12-13T03:04:17.594Z,6.82
2018-12-13T03:06:43.547Z,6.88
2018-12-13T03:09:09.498Z,6.71
2018-12-13T03:11:35.453Z,6.82
2018-12-13T03:14:01.429Z,6.92
2018-12-13T03:16:27.378Z,6.86
2018-12-13T03:18:53.339Z,6.72
2018-12-13T03:21:19.280Z,7.04
2018-12-13T03:23:45.235Z,6.99
2018-12-13T03:26:11.201Z,6.99
2018-12-13T03:28:37.179Z,7.02
2018-12-13T03:31:03.148Z,6.92
2018-12-13T03:33:29.129Z,6.89
2018-12-13T03:35:55.077Z,6.85
2018-12-13T03:38:21.031Z,6.70
2018-12-13T03:40:46.983Z,6.90
2018-12-13T03:43:12.951Z,7.03
2018-12-13T03:45:38.924Z,7.09
2018-12-13T03:48:04.885Z,6.97
2018-12-13T03:50:30.844Z,7.00
2018-12-13T03:52:56.776Z,6.96
2018-12-13T03:55:22.717Z,6.95
2018-12-13T03:57:48.678Z,7.10
2018-12-13T04:00:14.863Z,7.00
2018-12-13T04:02:40.843Z,7.12
2018-12-13T04:05:06.800Z,7.07
2018-12-13T04:07:32.756Z,7.13
2018-12-13T04:09:58.734Z,7.11
2018-12-13T04:12:24.713Z,6.84
2018-12-13T04:14:50.673Z,7.17
2018-12-13T04:17:16.648Z,7.12
2018-12-13T04:19:42.626Z,7.08
2018-12-13T04:22:08.637Z,7.09
2018-12-13T04:24:34.623Z,7.18
2018-12-13T04:27:00.596Z,6.94
2018-12-13T04:29:26.575Z,6.90
2018-12-13T04:31:52.544Z,7.17
2018-12-13T04:34:18.509Z,7.16
2018-12-13T04:36:44.503Z,7.21
2018-12-13T04:39:10.565Z,7.07
2018-12-13T04:41:36.573Z,7.10
2018-12-13T04:44:02.580Z,7.11
2018-12-13T04:46:28.542Z,7.11
2018-12-13T04:48:54.551Z,7.24
2018-12-13T04:51:21.671Z,7.19
2018-12-13T04:53:47.640Z,7.24
2018-12-13T04:56:13.610Z,7.30
2018-12-13T04:58:39.567Z,7.51
2018-12-13T05:01:05.533Z,7.36
2018-12-13T05:03:31.496Z,7.48
2018-12-13T05:05:57.456Z,7.43
2018-12-13T05:08:23.422Z,7.18
2018-12-13T05:10:49.392Z,7.15
2018-12-13T05:13:15.373Z,7.44
2018-12-13T05:15:41.312Z,7.42
2018-12-13T05:18:07.292Z,7.35
2018-12-13T05:20:33.262Z,7.24
2018-12-13T05:22:59.213Z,7.43
2018-12-13T05:25:28.670Z,7.50
2018-12-13T05:27:54.668Z,7.49
2018-12-13T05:30:20.620Z,7.39
2018-12-13T05:32:46.627Z,7.53
2018-12-13T05:35:12.611Z,7.46
2018-12-13T05:37:38.664Z,7.42
2018-12-13T05:40:04.636Z,7.38
2018-12-13T05:42:30.599Z,7.54
2018-12-13T05:44:56.606Z,7.74
2018-12-13T05:47:22.548Z,7.67
2018-12-13T05:49:48.622Z,7.62
2018-12-13T05:52:14.619Z,7.43
2018-12-13T05:54:40.593Z,7.41
2018-12-13T05:57:06.529Z,7.38
2018-12-13T05:59:32.487Z,7.50
2018-12-13T06:01:58.443Z,7.72
2018-12-13T06:04:24.413Z,7.64
2018-12-13T06:06:50.902Z,7.50
2018-12-13T06:09:16.907Z,7.59
2018-12-13T06:11:42.926Z,7.60
2018-12-13T06:14:10.005Z,7.58
2018-12-13T06:16:36.111Z,7.64
2018-12-13T06:19:02.061Z,7.71
2018-12-13T06:21:28.071Z,7.63
2018-12-13T06:23:54.122Z,7.34
2018-12-13T06:26:21.155Z,7.18
2018-12-13T06:28:47.133Z,7.46
2018-12-13T06:31:13.101Z,7.40
2018-12-13T06:33:39.094Z,7.01
2018-12-13T06:36:05.045Z,7.21
2018-12-13T06:38:31.191Z,7.42
2018-12-13T06:40:57.149Z,7.52
2018-12-13T06:43:23.084Z,7.64
2018-12-13T06:45:49.062Z,7.83
2018-12-13T06:48:15.059Z,7.46
2018-12-13T06:50:41.046Z,7.37
2018-12-13T06:53:07.052Z,7.28
2018-12-13T06:55:33.124Z,7.52
2018-12-13T06:57:59.086Z,7.56
2018-12-13T07:00:25.071Z,7.50
2018-12-13T07:02:51.058Z,7.63
2018-12-13T07:05:17.696Z,7.80
2018-12-13T07:07:44.365Z,7.77
2018-12-13T07:10:10.309Z,7.73
2018-12-13T07:12:36.255Z,7.76
2018-12-13T07:15:02.199Z,7.89
2018-12-13T07:17:28.167Z,7.91
2018-12-13T07:19:54.105Z,7.95
2018-12-13T07:22:20.110Z,7.97
2018-12-13T07:24:46.094Z,7.90
2018-12-13T07:27:12.109Z,7.99
2018-12-13T07:29:38.071Z,7.96
2018-12-13T07:32:04.046Z,7.99
2018-12-13T07:34:30.005Z,8.10
2018-12-13T07:36:55.977Z,8.72
2018-12-13T07:39:21.916Z,8.82
2018-12-13T07:41:47.987Z,8.63
2018-12-13T07:44:13.979Z,8.39
2018-12-13T07:46:39.934Z,8.40
2018-12-13T07:49:05.885Z,8.16
2018-12-13T07:54:03.058Z,7.95
2018-12-13T07:56:30.078Z,8.04
2018-12-13T07:58:56.022Z,8.06
2018-12-13T08:01:22.019Z,8.10
2018-12-13T08:03:47.975Z,8.09
2018-12-13T08:06:13.947Z,8.32
2018-12-13T08:08:39.891Z,8.32
2018-12-13T08:11:05.895Z,8.36
2018-12-13T08:13:32.973Z,8.40
2018-12-13T08:15:58.923Z,8.44
2018-12-13T08:18:24.882Z,8.29
2018-12-13T08:20:50.937Z,8.07
2018-12-13T08:23:16.902Z,8.09
2018-12-13T08:25:42.846Z,7.87
2018-12-13T08:28:08.791Z,7.99
2018-12-13T08:30:34.744Z,7.97
2018-12-13T08:33:00.714Z,7.51
2018-12-13T08:35:26.659Z,7.40
2018-12-13T08:37:52.615Z,7.04
2018-12-13T08:40:18.569Z,7.35
2018-12-13T08:42:44.519Z,7.73
2018-12-13T08:45:10.463Z,7.97
2018-12-13T08:47:36.418Z,7.97
2018-12-13T08:50:02.348Z,7.91
2018-12-13T08:52:28.662Z,7.96
2018-12-13T08:54:54.593Z,8.05
2018-12-13T08:57:20.553Z,8.06
2018-12-13T08:59:46.507Z,8.12
2018-12-13T09:02:12.477Z,8.16
2018-12-13T09:04:38.427Z,8.28
2018-12-13T09:07:04.397Z,7.81
2018-12-13T09:09:30.338Z,7.84
2018-12-13T09:11:56.311Z,7.91
2018-12-13T09:14:22.244Z,7.85
2018-12-13T09:16:48.223Z,7.52
2018-12-13T09:19:14.318Z,7.68
2018-12-13T09:21:40.331Z,7.75
2018-12-13T09:24:06.310Z,7.61
2018-12-13T09:26:32.275Z,7.20
2018-12-13T09:28:58.235Z,7.52
2018-12-13T09:31:24.185Z,7.63
2018-12-13T09:33:53.281Z,7.35
2018-12-13T09:36:19.248Z,7.44
2018-12-13T09:38:45.220Z,7.66
2018-12-13T09:41:11.256Z,8.07
2018-12-13T09:43:37.199Z,7.91
2018-12-13T09:46:03.167Z,7.65
2018-12-13T09:48:29.129Z,7.84
2018-12-13T09:50:55.117Z,8.16
2018-12-13T09:53:22.085Z,8.20
2018-12-13T09:55:48.054Z,8.26
2018-12-13T09:58:14.061Z,8.53
2018-12-13T10:00:40.037Z,8.21
2018-12-13T10:03:06.020Z,8.13
2018-12-13T10:05:31.977Z,8.13
2018-12-13T10:07:57.944Z,8.13
2018-12-13T10:10:23.904Z,8.27
2018-12-13T10:12:49.875Z,8.11
2018-12-13T10:15:15.860Z,8.00
2018-12-13T10:17:41.859Z,8.15
2018-12-13T10:20:07.862Z,8.04
2018-12-13T10:22:33.846Z,8.13
2018-12-13T10:24:59.833Z,8.23
2018-12-13T10:27:25.769Z,7.94
2018-12-13T10:29:51.740Z,7.78
2018-12-13T10:32:17.708Z,7.89
2018-12-13T10:34:43.675Z,7.85
2018-12-13T10:37:09.634Z,8.25
2018-12-13T10:39:35.582Z,8.11
2018-12-13T10:42:01.521Z,8.15
2018-12-13T10:44:27.476Z,8.55
2018-12-13T10:46:54.185Z,8.50
2018-12-13T10:49:20.368Z,8.77
2018-12-13T10:51:46.315Z,8.90
2018-12-13T10:54:12.263Z,8.51
2018-12-13T10:56:38.227Z,8.44
2018-12-13T10:59:06.301Z,8.41
2018-12-13T11:01:32.297Z,7.87
2018-12-13T11:03:58.256Z,8.11
2018-12-13T11:06:24.253Z,8.06
2018-12-13T11:08:50.224Z,7.99
2018-12-13T11:11:16.195Z,8.43
2018-12-13T11:13:42.215Z,8.37
2018-12-13T11:16:08.220Z,7.96
2018-12-13T11:18:34.202Z,7.99
2018-12-13T11:21:00.948Z,7.92
2018-12-13T11:23:26.941Z,8.02
2018-12-13T11:25:52.894Z,7.99
2018-12-13T11:28:18.852Z,7.96
2018-12-13T11:30:44.903Z,8.17
2018-12-13T11:33:10.862Z,8.50
2018-12-13T11:35:36.853Z,8.14
2018-12-13T11:38:02.843Z,8.44
2018-12-13T11:40:29.587Z,8.13
2018-12-13T11:45:26.824Z,7.96
2018-12-13T11:47:52.785Z,8.10
2018-12-13T11:50:18.764Z,8.14
2018-12-13T11:52:45.008Z,8.11
2018-12-13T11:55:10.991Z,8.31
2018-12-13T11:57:38.234Z,8.62
2018-12-13T12:00:05.219Z,8.30
2018-12-13T12:02:32.233Z,8.33
2018-12-13T12:04:58.436Z,7.76
2018-12-13T12:07:24.409Z,8.35
2018-12-13T12:09:50.388Z,8.56
2018-12-13T12:12:16.350Z,8.79
2018-12-13T12:17:14.320Z,8.36
2018-12-13T12:19:40.344Z,8.59
2018-12-13T12:22:06.368Z,8.61
2018-12-13T12:24:32.390Z,8.20
2018-12-13T12:26:58.456Z,6.99
2018-12-13T12:29:24.479Z,8.25
2018-12-13T12:31:50.424Z,7.95
2018-12-13T12:34:16.787Z,7.71
2018-12-13T12:36:42.737Z,8.36
2018-12-13T12:39:08.711Z,8.55
2018-12-13T12:41:34.723Z,7.94
2018-12-13T12:44:00.721Z,8.29
2018-12-13T12:51:29.658Z,8.06
2018-12-13T12:53:55.703Z,7.51
2018-12-13T12:56:21.639Z,6.99
2018-12-13T13:11:24.123Z,8.39
2018-12-13T13:13:50.078Z,7.93
2018-12-13T13:16:16.024Z,8.10
2018-12-13T13:18:42.006Z,8.10
2018-12-13T13:21:08.016Z,7.85
2018-12-13T13:23:33.992Z,7.83
2018-12-13T13:26:00.047Z,7.89
2018-12-13T13:28:25.993Z,7.95
2018-12-13T13:30:51.957Z,7.95
2018-12-13T13:33:17.915Z,7.91
2018-12-13T13:35:43.864Z,7.91
2018-12-13T13:38:09.817Z,7.98
2018-12-13T13:40:35.793Z,8.05
2018-12-13T13:43:02.302Z,8.37
2018-12-13T13:45:28.274Z,8.24
2018-12-13T13:47:54.238Z,8.03
2018-12-13T13:50:20.202Z,8.19
2018-12-13T13:52:46.187Z,8.13
2018-12-13T13:55:12.160Z,7.64
2018-12-13T14:02:42.202Z,7.68
2018-12-13T14:05:08.184Z,7.72
2018-12-13T14:07:34.280Z,7.87
2018-12-13T14:10:00.236Z,7.90
2018-12-13T14:12:26.191Z,7.78
2018-12-13T14:14:52.168Z,8.19
2018-12-13T14:17:18.856Z,8.26
2018-12-13T14:19:45.017Z,8.22
2018-12-13T14:22:11.048Z,8.08
2018-12-13T14:24:37.007Z,7.99
2018-12-13T14:27:09.063Z,8.24
2018-12-13T14:29:35.120Z,8.50
2018-12-13T14:32:01.082Z,8.29
2018-12-13T14:34:27.063Z,8.17
2018-12-13T14:36:53.032Z,8.10
2018-12-13T14:39:19.205Z,8.08
2018-12-13T14:41:45.187Z,8.14
2018-12-13T14:44:11.156Z,8.19
2018-12-13T14:46:38.088Z,8.28
2018-12-13T14:49:04.053Z,8.14
2018-12-13T14:51:33.175Z,8.06
2018-12-13T14:53:59.576Z,8.47
2018-12-13T14:56:25.603Z,8.38
2018-12-13T14:58:51.621Z,8.50
2018-12-13T15:01:17.557Z,7.50
2018-12-13T15:03:43.548Z,7.99
2018-12-13T15:06:09.508Z,8.10
2018-12-13T15:08:35.799Z,8.11
2018-12-13T15:11:01.780Z,8.20
2018-12-13T15:13:27.744Z,8.04
2018-12-13T15:15:54.834Z,7.99
2018-12-13T15:18:21.015Z,8.15
2018-12-13T15:20:48.194Z,7.94
2018-12-13T15:23:14.192Z,8.10
2018-12-13T15:25:40.203Z,7.39
2018-12-13T15:28:06.292Z,7.66
2018-12-13T15:30:32.251Z,7.67
2018-12-13T15:32:58.223Z,7.61
2018-12-13T15:35:24.176Z,7.84
2018-12-13T15:37:50.748Z,8.13
2018-12-13T15:40:16.760Z,8.35
2018-12-13T15:42:42.761Z,8.55
2018-12-13T15:45:08.753Z,8.40
2018-12-13T15:47:34.768Z,8.05
2018-12-13T15:50:00.720Z,7.99
2018-12-13T15:52:26.759Z,7.81
2018-12-13T15:54:52.808Z,7.92
2018-12-13T15:57:18.796Z,8.30
2018-12-13T15:59:45.788Z,8.01
2018-12-13T16:02:11.776Z,8.06
2018-12-13T16:04:38.037Z,8.07
2018-12-13T16:07:03.985Z,7.93
2018-12-13T16:09:29.996Z,8.21
2018-12-13T16:11:56.910Z,7.98
2018-12-13T16:14:22.899Z,8.04
2018-12-13T16:16:48.866Z,7.93
2018-12-13T16:19:14.827Z,7.54
2018-12-13T16:21:40.792Z,7.97
2018-12-13T16:24:07.633Z,7.88
2018-12-13T16:26:33.580Z,8.12
2018-12-13T16:28:59.552Z,8.18
2018-12-13T16:31:25.525Z,8.00
2018-12-13T16:33:58.095Z,8.29
2018-12-13T16:36:25.151Z,8.02
2018-12-13T16:41:23.044Z,7.56
2018-12-13T16:43:49.024Z,7.87
2018-12-13T16:46:15.103Z,7.76
2018-12-13T16:48:41.091Z,7.97
2018-12-13T16:51:07.065Z,8.17
2018-12-13T16:53:33.041Z,8.13
2018-12-13T16:56:00.196Z,8.11
2018-12-13T16:58:26.168Z,8.43
2018-12-13T17:00:52.168Z,8.26
2018-12-13T17:03:18.170Z,8.33
2018-12-13T17:05:44.112Z,8.10
2018-12-13T17:08:10.083Z,8.19
2018-12-13T17:10:36.051Z,8.10
2018-12-13T17:13:01.992Z,8.08
2018-12-13T17:15:27.933Z,8.07
2018-12-13T17:17:53.878Z,8.28
2018-12-13T17:20:19.907Z,8.26
2018-12-13T17:22:45.887Z,8.35
2018-12-13T17:25:12.120Z,8.51
2018-12-13T17:27:38.314Z,8.31
2018-12-13T17:30:04.348Z,8.36
2018-12-13T17:32:30.411Z,8.23
2018-12-13T17:34:56.513Z,8.24
2018-12-13T17:37:22.881Z,7.98
2018-12-13T17:39:48.841Z,8.05
2018-12-13T17:42:14.855Z,8.18
2018-12-13T17:44:40.822Z,7.94
2018-12-13T17:47:06.908Z,7.93
2018-12-13T17:49:32.925Z,8.32
2018-12-13T17:51:58.968Z,8.35
2018-12-13T17:54:24.953Z,8.29
2018-12-13T17:56:50.909Z,8.30
2018-12-13T17:59:16.865Z,7.97
2018-12-13T18:01:42.855Z,8.16
2018-12-13T18:04:08.825Z,8.33
2018-12-13T18:06:34.800Z,8.11
2018-12-13T18:09:00.756Z,8.19
2018-12-13T18:11:26.728Z,8.49
2018-12-13T18:13:52.668Z,8.52
2018-12-13T18:16:18.618Z,8.25
2018-12-13T18:18:45.442Z,8.16
2018-12-13T18:21:11.387Z,7.82
2018-12-13T18:23:37.401Z,8.19
2018-12-13T18:26:04.450Z,8.10
2018-12-13T18:28:30.429Z,8.12
2018-12-13T18:30:56.397Z,8.12
2018-12-13T18:33:22.359Z,8.17
2018-12-13T18:35:48.338Z,8.66
2018-12-13T18:38:14.327Z,8.83
2018-12-13T18:40:40.296Z,8.45
2018-12-13T18:43:06.280Z,8.45
2018-12-13T18:45:32.388Z,8.37
2018-12-13T18:47:59.360Z,8.15
2018-12-13T18:50:25.353Z,8.21
2018-12-13T18:52:51.313Z,8.36
2018-12-13T18:55:17.291Z,8.03
2018-12-13T19:00:15.687Z,7.98
2018-12-13T19:02:41.679Z,8.25
2018-12-13T19:05:07.629Z,8.21
2018-12-13T19:07:33.591Z,8.36
2018-12-13T19:09:59.559Z,8.09
2018-12-13T19:12:26.973Z,8.00
2018-12-13T19:14:53.048Z,8.09
2018-12-13T19:17:19.019Z,8.13
2018-12-13T19:19:44.973Z,8.48
2018-12-13T19:22:10.934Z,8.29
2018-12-13T19:24:36.913Z,8.48
2018-12-13T19:27:02.881Z,8.90
2018-12-13T19:29:28.861Z,8.66
2018-12-13T19:31:54.809Z,8.18
2018-12-13T19:34:20.981Z,8.31
2018-12-13T19:36:47.950Z,8.09
2018-12-13T19:39:13.890Z,8.37
2018-12-13T19:41:39.855Z,8.40
2018-12-13T19:44:05.869Z,8.33
2018-12-13T19:46:31.820Z,7.95
2018-12-13T19:48:57.782Z,8.21
2018-12-13T19:51:23.728Z,8.46
2018-12-13T19:53:49.734Z,8.54
2018-12-13T19:56:15.698Z,8.70
2018-12-13T19:58:41.857Z,8.59
2018-12-13T20:01:07.837Z,8.78
2018-12-13T20:03:33.829Z,8.45
2018-12-13T20:05:59.820Z,8.31
2018-12-13T20:08:25.932Z,8.16
2018-12-13T20:10:54.677Z,8.63
2018-12-13T20:13:19.877Z,8.49
2018-12-13T20:15:45.890Z,8.40
2018-12-13T20:18:11.845Z,8.59
2018-12-13T20:20:38.392Z,8.11
2018-12-13T20:23:04.497Z,7.78
2018-12-13T20:25:30.570Z,8.25
2018-12-13T20:27:56.665Z,8.23
2018-12-13T20:30:22.614Z,8.19
2018-12-13T20:32:48.552Z,7.98
2018-12-13T20:35:14.629Z,8.01
2018-12-13T20:37:40.650Z,8.29
2018-12-13T20:40:06.675Z,8.32
2018-12-13T20:42:32.643Z,8.13
2018-12-13T20:44:58.596Z,8.27
2018-12-13T20:47:25.619Z,8.23
2018-12-13T20:49:51.595Z,8.24
2018-12-13T20:52:17.645Z,8.31
2018-12-13T20:54:43.616Z,8.12
2018-12-13T20:57:09.684Z,8.17
2018-12-13T20:59:35.693Z,8.01
2018-12-13T21:02:01.793Z,8.10
2018-12-13T21:04:27.729Z,8.41
2018-12-13T21:06:53.767Z,8.45
2018-12-13T21:09:19.836Z,8.26
2018-12-13T21:11:45.836Z,7.88
2018-12-13T21:14:11.995Z,7.76
2018-12-13T21:16:38.209Z,8.01
2018-12-13T21:19:04.156Z,8.17
2018-12-13T21:21:30.123Z,8.36
2018-12-13T21:23:56.071Z,8.62
2018-12-13T21:26:22.074Z,8.22
2018-12-13T21:28:48.420Z,8.14
2018-12-13T21:31:14.461Z,7.92
2018-12-13T21:33:40.476Z,8.04
2018-12-13T21:36:06.536Z,7.71
2018-12-13T21:38:32.511Z,8.27
2018-12-13T21:40:58.511Z,8.12
2018-12-13T21:43:24.569Z,8.06
2018-12-13T21:45:50.525Z,8.18
2018-12-13T21:48:16.474Z,8.06
2018-12-13T21:50:42.577Z,7.73
2018-12-13T21:53:08.557Z,7.83
2018-12-13T21:55:34.499Z,7.77
2018-12-13T21:58:00.517Z,7.88
2018-12-13T22:00:26.635Z,7.64
2018-12-13T22:02:53.261Z,7.63
2018-12-13T22:05:19.215Z,7.79
2018-12-13T22:07:45.195Z,7.60
2018-12-13T22:10:11.241Z,7.80
2018-12-13T22:12:37.229Z,7.99
2018-12-13T22:15:03.198Z,7.63
2018-12-13T22:17:29.169Z,7.94
2018-12-13T22:19:55.118Z,8.00
2018-12-13T22:22:21.061Z,8.15
2018-12-13T22:24:47.023Z,8.10
2018-12-13T22:27:13.875Z,7.94
2018-12-13T22:29:39.842Z,7.88
2018-12-13T22:32:05.804Z,7.75
2018-12-13T22:34:31.751Z,7.93
2018-12-13T22:36:57.692Z,7.91
2018-12-13T22:39:23.648Z,7.80
2018-12-13T22:41:49.616Z,7.81
2018-12-13T22:44:15.560Z,7.79
2018-12-13T22:46:41.572Z,7.87
2018-12-13T22:49:07.523Z,7.81
2018-12-13T22:51:33.530Z,7.90
2018-12-13T22:53:59.474Z,8.27
2018-12-13T22:56:25.432Z,8.57
2018-12-13T22:58:51.374Z,7.96
2018-12-13T23:01:17.344Z,7.77
2018-12-13T23:03:43.334Z,7.89
2018-12-13T23:06:09.540Z,7.77
2018-12-13T23:08:35.480Z,8.17
2018-12-13T23:11:01.424Z,8.00
2018-12-13T23:13:27.369Z,7.98
2018-12-13T23:15:53.308Z,8.20
2018-12-13T23:18:19.277Z,7.69
2018-12-13T23:20:45.292Z,8.00
2018-12-13T23:23:11.240Z,8.21
2018-12-13T23:25:37.209Z,8.46
2018-12-13T23:28:04.179Z,8.05
2018-12-13T23:30:30.113Z,7.97
2018-12-13T23:32:56.140Z,7.94
2018-12-13T23:35:22.085Z,7.92
2018-12-13T23:37:48.031Z,8.05
2018-12-13T23:40:13.969Z,8.34
2018-12-13T23:42:39.902Z,8.10
2018-12-13T23:45:05.853Z,7.93
2018-12-13T23:47:31.792Z,7.72
2018-12-13T23:49:57.768Z,7.55
2018-12-13T23:52:23.749Z,7.95
2018-12-13T23:54:49.723Z,7.96
2018-12-13T23:57:15.677Z,8.23
2018-12-13T23:59:41.704Z,7.84
